createdAt,value
2018-07-14T00:04:57.216Z,60.90
2018-07-14T00:10:32.971Z,61.80
2018-07-14T00:16:02.139Z,61.30
2018-07-14T00:21:37.133Z,61.50
2018-07-14T00:27:06.579Z,61.80
2018-07-14T00:32:35.824Z,61.80
2018-07-14T00:38:05.338Z,61.90
2018-07-14T00:43:35.907Z,62.00
2018-07-14T00:49:06.497Z,62.10
2018-07-14T00:54:35.812Z,62.20
2018-07-14T01:00:05.285Z,62.40
2018-07-14T01:05:34.824Z,62.60
2018-07-14T01:11:22.960Z,62.60
2018-07-14T01:16:52.248Z,62.80
2018-07-14T01:22:21.477Z,63.00
2018-07-14T01:27:50.703Z,63.10
2018-07-14T01:33:19.912Z,63.20
2018-07-14T01:38:49.208Z,63.40
2018-07-14T01:44:18.496Z,63.40
2018-07-14T01:49:48.444Z,63.50
2018-07-14T01:55:18.067Z,63.50
2018-07-14T02:00:47.401Z,63.50
2018-07-14T02:06:17.722Z,63.50
2018-07-14T02:11:46.997Z,63.50
2018-07-14T02:17:16.722Z,63.60
2018-07-14T02:22:47.167Z,63.70
2018-07-14T02:28:16.452Z,63.60
2018-07-14T02:33:45.731Z,63.60
2018-07-14T02:39:14.976Z,63.70
2018-07-14T02:44:44.217Z,63.80
2018-07-14T02:50:13.433Z,63.90
2018-07-14T02:55:42.702Z,63.90
2018-07-14T03:01:13.012Z,64.00
2018-07-14T03:06:42.357Z,64.20
2018-07-14T03:12:11.583Z,64.30
2018-07-14T03:17:40.772Z,64.40
2018-07-14T03:23:12.009Z,64.50
2018-07-14T03:28:41.223Z,64.80
2018-07-14T03:34:10.461Z,64.90
2018-07-14T03:39:39.759Z,65.00
2018-07-14T03:45:11.733Z,65.20
2018-07-14T03:50:40.906Z,65.40
2018-07-14T03:56:10.579Z,65.50
2018-07-14T04:01:42.972Z,65.60
2018-07-14T04:07:12.152Z,65.70
2018-07-14T04:12:41.426Z,65.60
2018-07-14T04:18:17.152Z,65.70
2018-07-14T04:23:46.515Z,65.80
2018-07-14T04:29:15.816Z,65.80
2018-07-14T04:34:45.108Z,65.90
2018-07-14T04:40:15.714Z,65.70
2018-07-14T04:45:45.505Z,65.50
2018-07-14T04:51:16.907Z,65.40
2018-07-14T04:56:47.417Z,65.30
2018-07-14T05:02:24.163Z,65.20
2018-07-14T05:07:55.704Z,65.20
2018-07-14T05:13:24.975Z,65.50
2018-07-14T05:18:55.262Z,64.70
2018-07-14T05:24:24.709Z,64.70
2018-07-14T05:29:53.928Z,64.30
2018-07-14T05:35:27.888Z,63.80
2018-07-14T05:40:57.174Z,63.50
2018-07-14T05:46:32.423Z,63.20
2018-07-14T05:52:01.667Z,62.80
2018-07-14T05:57:30.832Z,62.50
2018-07-14T06:03:00.105Z,62.40
2018-07-14T06:08:29.311Z,62.10
2018-07-14T06:13:58.522Z,61.90
2018-07-14T06:19:27.730Z,61.90
2018-07-14T06:24:57.952Z,61.80
2018-07-14T06:30:27.177Z,61.90
2018-07-14T06:35:56.367Z,61.80
2018-07-14T06:41:26.707Z,61.80
2018-07-14T06:46:55.936Z,61.70
2018-07-14T06:52:25.128Z,61.60
2018-07-14T06:57:54.377Z,61.40
2018-07-14T07:03:23.716Z,61.20
2018-07-14T07:08:53.936Z,61.00
2018-07-14T07:14:23.171Z,60.40
2018-07-14T07:25:21.497Z,59.80
2018-07-14T07:30:50.959Z,59.30
2018-07-14T07:36:24.037Z,59.10
2018-07-14T07:41:53.649Z,58.80
2018-07-14T07:47:25.412Z,58.70
2018-07-14T07:52:54.776Z,58.90
2018-07-14T07:58:24.032Z,58.00
2018-07-14T08:03:53.239Z,57.60
2018-07-14T08:14:51.474Z,56.90
2018-07-14T08:20:21.161Z,56.20
2018-07-14T08:25:50.580Z,55.70
2018-07-14T08:31:19.796Z,54.90
2018-07-14T08:36:50.767Z,55.20
2018-07-14T08:42:20.124Z,54.20
2018-07-14T08:47:49.715Z,53.60
2018-07-14T08:53:19.477Z,53.00
2018-07-14T08:58:48.772Z,52.50
2018-07-14T09:04:18.099Z,52.10
2018-07-14T09:09:47.452Z,51.60
2018-07-14T09:15:18.764Z,51.40
2018-07-14T09:20:49.426Z,51.50
2018-07-14T09:26:18.913Z,50.90
2018-07-14T09:31:48.142Z,50.30
2018-07-14T09:37:18.546Z,49.00
2018-07-14T09:42:48.186Z,48.60
2018-07-14T09:48:17.959Z,47.70
2018-07-14T09:53:47.402Z,47.70
2018-07-14T09:59:17.571Z,47.00
2018-07-14T10:04:46.889Z,46.80
2018-07-14T10:10:16.426Z,46.20
2018-07-14T10:15:45.806Z,46.40
2018-07-14T10:21:15.178Z,45.40
2018-07-14T10:26:44.487Z,45.30
2018-07-14T10:32:15.973Z,45.20
2018-07-14T10:37:45.343Z,45.20
2018-07-14T10:43:21.927Z,45.50
2018-07-14T10:48:53.233Z,46.00
2018-07-14T10:54:23.592Z,46.50
2018-07-14T10:59:53.009Z,46.30
2018-07-14T11:05:22.334Z,46.50
2018-07-14T11:10:52.161Z,46.40
2018-07-14T11:16:21.848Z,46.50
2018-07-14T11:21:51.473Z,46.80
2018-07-14T11:27:21.233Z,46.00
2018-07-14T11:32:50.503Z,44.90
2018-07-14T11:38:20.224Z,45.50
2018-07-14T11:43:49.731Z,45.90
2018-07-14T11:49:19.359Z,49.00
2018-07-14T12:00:18.236Z,51.40
2018-07-14T12:05:47.538Z,52.00
2018-07-14T12:11:17.078Z,53.20
2018-07-14T12:16:46.401Z,52.00
2018-07-14T12:22:16.049Z,52.10
2018-07-14T12:27:45.220Z,50.20
2018-07-14T12:33:14.474Z,49.70
2018-07-14T12:38:43.792Z,49.70
2018-07-14T12:44:23.157Z,49.10
2018-07-14T12:49:52.514Z,48.00
2018-07-14T12:55:24.760Z,48.10
2018-07-14T13:00:54.172Z,47.40
2018-07-14T13:06:23.589Z,47.90
2018-07-14T13:11:52.834Z,46.50
2018-07-14T13:17:22.012Z,47.00
2018-07-14T13:22:51.473Z,46.30
2018-07-14T13:28:20.848Z,45.70
2018-07-14T13:33:50.310Z,45.30
2018-07-14T13:39:19.869Z,45.60
2018-07-14T13:44:52.632Z,45.60
2018-07-14T13:55:51.060Z,44.80
2018-07-14T14:01:23.301Z,43.80
2018-07-14T14:06:53.106Z,43.60
2018-07-14T14:12:22.509Z,43.60
2018-07-14T14:17:52.094Z,43.30
2018-07-14T14:28:51.422Z,44.40
2018-07-14T14:34:20.763Z,45.00
2018-07-14T14:39:50.149Z,46.20
2018-07-14T14:45:19.385Z,45.70
2018-07-14T14:50:49.929Z,46.40
2018-07-14T14:56:19.189Z,45.90
2018-07-14T15:01:48.538Z,46.50
2018-07-14T15:07:17.910Z,47.30
2018-07-14T15:12:48.195Z,48.00
2018-07-14T15:18:23.347Z,48.20
2018-07-14T15:23:52.619Z,48.40
2018-07-14T15:29:39.405Z,48.80
2018-07-14T15:35:08.709Z,49.30
2018-07-14T15:40:37.902Z,49.30
2018-07-14T15:46:07.146Z,49.80
2018-07-14T15:51:36.588Z,50.20
2018-07-14T15:57:05.952Z,50.20
2018-07-14T16:02:36.257Z,51.40
2018-07-14T16:08:05.471Z,53.30
2018-07-14T16:19:03.746Z,57.30
2018-07-14T16:24:32.949Z,58.40
2018-07-14T16:30:02.227Z,59.30
2018-07-14T16:35:31.521Z,60.50
2018-07-14T16:41:00.750Z,61.70
2018-07-14T16:46:30.124Z,62.80
2018-07-14T16:51:59.364Z,63.80
2018-07-14T16:57:28.692Z,64.20
2018-07-14T17:02:57.863Z,65.10
2018-07-14T17:08:27.053Z,66.00
2018-07-14T17:19:25.135Z,66.50
2018-07-14T17:30:23.412Z,67.10
2018-07-14T17:35:52.666Z,67.60
2018-07-14T17:41:21.921Z,67.90
2018-07-14T17:46:51.498Z,68.20
2018-07-14T17:52:20.885Z,68.10
2018-07-14T17:57:50.260Z,68.00
2018-07-14T18:03:19.641Z,68.00
2018-07-14T18:08:49.018Z,68.40
2018-07-14T18:14:18.417Z,68.30
2018-07-14T18:25:16.911Z,68.70
2018-07-14T18:30:46.279Z,68.70
2018-07-14T18:36:15.651Z,69.30
2018-07-14T18:41:44.769Z,69.40
2018-07-14T18:47:14.018Z,69.60
2018-07-14T18:52:43.320Z,69.60
2018-07-14T18:58:12.493Z,69.80
2018-07-14T19:03:41.696Z,69.90
2018-07-14T19:09:11.009Z,69.80
2018-07-14T19:14:40.142Z,70.00
2018-07-14T19:20:09.367Z,70.30
2018-07-14T19:25:38.660Z,70.30
2018-07-14T19:31:07.794Z,70.90
2018-07-14T19:36:37.067Z,71.00
2018-07-14T19:42:06.514Z,71.20
2018-07-14T19:47:35.667Z,71.40
2018-07-14T19:53:04.943Z,71.70
2018-07-14T19:58:34.221Z,71.90
2018-07-14T20:04:03.456Z,72.00
2018-07-14T20:09:32.665Z,72.10
2018-07-14T20:15:01.857Z,72.30
2018-07-14T20:20:31.027Z,72.50
2018-07-14T20:26:00.277Z,72.80
2018-07-14T20:31:29.527Z,73.00
2018-07-14T20:42:27.645Z,73.40
2018-07-14T20:47:56.959Z,73.90
2018-07-14T20:53:26.195Z,74.00
2018-07-14T20:58:55.391Z,74.10
2018-07-14T21:04:25.647Z,74.40
2018-07-14T21:09:54.864Z,74.50
2018-07-14T21:20:53.117Z,74.70
2018-07-14T21:26:22.416Z,74.90
2018-07-14T21:31:51.786Z,74.90
2018-07-14T21:37:20.959Z,74.80
2018-07-14T21:42:50.185Z,74.80
2018-07-14T21:48:19.399Z,75.00
2018-07-14T21:53:49.901Z,75.00
2018-07-14T21:59:19.165Z,75.00
2018-07-14T22:04:48.426Z,75.10
2018-07-14T22:10:19.677Z,75.30
2018-07-14T22:15:48.985Z,75.50
2018-07-14T22:21:18.761Z,75.60
2018-07-14T22:26:48.238Z,75.70
2018-07-14T22:32:17.827Z,75.80
2018-07-14T22:37:47.123Z,75.90
2018-07-14T22:43:17.501Z,79.40
2018-07-14T22:48:47.003Z,78.00
2018-07-14T22:54:16.297Z,77.60
2018-07-14T22:59:49.183Z,77.60
2018-07-14T23:05:18.640Z,77.40
2018-07-14T23:10:48.003Z,77.40
2018-07-14T23:16:17.275Z,77.40
2018-07-14T23:21:46.656Z,77.40
2018-07-14T23:27:15.930Z,77.40
2018-07-14T23:32:45.561Z,77.30
2018-07-14T23:38:14.879Z,77.40
2018-07-14T23:43:44.151Z,77.50
2018-07-14T23:49:13.462Z,77.50
2018-07-14T23:54:42.714Z,77.00
